sensor_id;sensor_type;location;lat;lon;timestamp;temperature;humidity
68556;HTU21D;55544;51.032;5.866;2023-05-24T00:01:18;14.58;54.57
68556;HTU21D;55544;51.032;5.866;2023-05-24T00:03:54;14.53;54.80
68556;HTU21D;55544;51.032;5.866;2023-05-24T00:06:26;14.49;54.96
68556;HTU21D;55544;51.032;5.866;2023-05-24T00:08:53;14.47;55.09
68556;HTU21D;55544;51.032;5.866;2023-05-24T00:11:19;14.44;55.17
68556;HTU21D;55544;51.032;5.866;2023-05-24T00:13:45;14.39;55.23
68556;HTU21D;55544;51.032;5.866;2023-05-24T00:16:11;14.35;55.44
68556;HTU21D;55544;51.032;5.866;2023-05-24T00:18:37;14.32;55.61
68556;HTU21D;55544;51.032;5.866;2023-05-24T00:21:06;14.29;55.59
68556;HTU21D;55544;51.032;5.866;2023-05-24T00:23:33;14.23;55.67
68556;HTU21D;55544;51.032;5.866;2023-05-24T00:25:59;14.21;55.71
68556;HTU21D;55544;51.032;5.866;2023-05-24T00:28:26;14.17;55.83
68556;HTU21D;55544;51.032;5.866;2023-05-24T00:30:52;14.13;55.99
68556;HTU21D;55544;51.032;5.866;2023-05-24T00:33:18;14.08;56.02
68556;HTU21D;55544;51.032;5.866;2023-05-24T00:35:44;14.05;56.08
68556;HTU21D;55544;51.032;5.866;2023-05-24T00:38:10;13.99;56.19
68556;HTU21D;55544;51.032;5.866;2023-05-24T00:40:36;13.93;56.31
68556;HTU21D;55544;51.032;5.866;2023-05-24T00:43:01;13.80;56.61
68556;HTU21D;55544;51.032;5.866;2023-05-24T00:45:27;13.76;56.78
68556;HTU21D;55544;51.032;5.866;2023-05-24T00:47:53;13.74;56.85
68556;HTU21D;55544;51.032;5.866;2023-05-24T00:50:19;13.69;56.93
68556;HTU21D;55544;51.032;5.866;2023-05-24T00:52:47;13.65;57.01
68556;HTU21D;55544;51.032;5.866;2023-05-24T00:55:14;13.56;57.26
68556;HTU21D;55544;51.032;5.866;2023-05-24T00:57:40;13.43;57.71
68556;HTU21D;55544;51.032;5.866;2023-05-24T01:00:08;13.20;58.41
68556;HTU21D;55544;51.032;5.866;2023-05-24T01:02:35;13.03;58.92
68556;HTU21D;55544;51.032;5.866;2023-05-24T01:05:03;12.82;59.48
68556;HTU21D;55544;51.032;5.866;2023-05-24T01:07:53;12.71;59.95
68556;HTU21D;55544;51.032;5.866;2023-05-24T01:10:43;12.76;59.71
68556;HTU21D;55544;51.032;5.866;2023-05-24T01:15:55;12.72;60.12
68556;HTU21D;55544;51.032;5.866;2023-05-24T01:18:33;12.71;60.20
68556;HTU21D;55544;51.032;5.866;2023-05-24T01:21:31;12.73;60.10
68556;HTU21D;55544;51.032;5.866;2023-05-24T01:29:18;12.59;60.63
68556;HTU21D;55544;51.032;5.866;2023-05-24T01:31:45;12.44;61.38
68556;HTU21D;55544;51.032;5.866;2023-05-24T01:34:11;12.16;62.47
68556;HTU21D;55544;51.032;5.866;2023-05-24T01:36:37;11.89;63.61
68556;HTU21D;55544;51.032;5.866;2023-05-24T01:39:03;11.79;64.11
68556;HTU21D;55544;51.032;5.866;2023-05-24T01:44:25;11.97;63.30
68556;HTU21D;55544;51.032;5.866;2023-05-24T01:47:01;11.94;63.37
68556;HTU21D;55544;51.032;5.866;2023-05-24T01:49:34;11.75;64.09
68556;HTU21D;55544;51.032;5.866;2023-05-24T01:52:10;11.61;64.58
68556;HTU21D;55544;51.032;5.866;2023-05-24T01:54:38;11.64;64.43
68556;HTU21D;55544;51.032;5.866;2023-05-24T01:57:09;11.72;63.93
68556;HTU21D;55544;51.032;5.866;2023-05-24T01:59:37;11.75;63.66
68556;HTU21D;55544;51.032;5.866;2023-05-24T02:02:04;11.75;63.76
68556;HTU21D;55544;51.032;5.866;2023-05-24T02:04:30;11.73;63.95
68556;HTU21D;55544;51.032;5.866;2023-05-24T02:06:56;11.73;63.65
68556;HTU21D;55544;51.032;5.866;2023-05-24T02:09:22;11.74;63.66
68556;HTU21D;55544;51.032;5.866;2023-05-24T02:11:48;11.70;63.88
68556;HTU21D;55544;51.032;5.866;2023-05-24T02:14:14;11.67;64.19
68556;HTU21D;55544;51.032;5.866;2023-05-24T02:16:42;11.63;64.46
68556;HTU21D;55544;51.032;5.866;2023-05-24T02:19:11;11.55;64.60
68556;HTU21D;55544;51.032;5.866;2023-05-24T02:21:39;11.53;64.49
68556;HTU21D;55544;51.032;5.866;2023-05-24T02:24:09;11.49;64.40
68556;HTU21D;55544;51.032;5.866;2023-05-24T02:26:39;11.46;64.39
68556;HTU21D;55544;51.032;5.866;2023-05-24T02:29:05;11.41;64.47
68556;HTU21D;55544;51.032;5.866;2023-05-24T02:31:31;11.38;64.76
68556;HTU21D;55544;51.032;5.866;2023-05-24T02:33:57;11.33;65.01
68556;HTU21D;55544;51.032;5.866;2023-05-24T02:36:23;11.30;65.36
68556;HTU21D;55544;51.032;5.866;2023-05-24T02:38:50;11.30;65.50
68556;HTU21D;55544;51.032;5.866;2023-05-24T02:41:16;11.25;65.58
68556;HTU21D;55544;51.032;5.866;2023-05-24T02:43:43;11.19;65.70
68556;HTU21D;55544;51.032;5.866;2023-05-24T02:46:09;11.15;66.01
68556;HTU21D;55544;51.032;5.866;2023-05-24T02:48:35;11.16;66.05
68556;HTU21D;55544;51.032;5.866;2023-05-24T02:51:01;11.09;66.27
68556;HTU21D;55544;51.032;5.866;2023-05-24T02:53:28;11.07;66.59
68556;HTU21D;55544;51.032;5.866;2023-05-24T02:55:54;10.96;66.65
68556;HTU21D;55544;51.032;5.866;2023-05-24T02:58:20;10.83;66.98
68556;HTU21D;55544;51.032;5.866;2023-05-24T03:00:48;10.85;66.65
68556;HTU21D;55544;51.032;5.866;2023-05-24T03:03:14;10.90;66.19
68556;HTU21D;55544;51.032;5.866;2023-05-24T03:05:40;10.89;66.09
68556;HTU21D;55544;51.032;5.866;2023-05-24T03:08:07;10.87;66.09
68556;HTU21D;55544;51.032;5.866;2023-05-24T03:10:33;10.86;66.30
68556;HTU21D;55544;51.032;5.866;2023-05-24T03:12:58;10.78;66.64
68556;HTU21D;55544;51.032;5.866;2023-05-24T03:15:24;10.57;67.43
68556;HTU21D;55544;51.032;5.866;2023-05-24T03:17:51;10.53;67.59
68556;HTU21D;55544;51.032;5.866;2023-05-24T03:20:17;10.51;67.45
68556;HTU21D;55544;51.032;5.866;2023-05-24T03:22:45;10.45;67.65
68556;HTU21D;55544;51.032;5.866;2023-05-24T03:25:11;10.52;67.42
68556;HTU21D;55544;51.032;5.866;2023-05-24T03:27:37;10.54;67.18
68556;HTU21D;55544;51.032;5.866;2023-05-24T03:30:03;10.56;67.07
68556;HTU21D;55544;51.032;5.866;2023-05-24T03:32:35;10.59;67.08
68556;HTU21D;55544;51.032;5.866;2023-05-24T03:35:01;10.57;67.10
68556;HTU21D;55544;51.032;5.866;2023-05-24T03:37:27;10.55;67.03
68556;HTU21D;55544;51.032;5.866;2023-05-24T03:39:53;10.57;67.02
68556;HTU21D;55544;51.032;5.866;2023-05-24T03:42:30;10.59;66.79
68556;HTU21D;55544;51.032;5.866;2023-05-24T03:44:55;10.58;66.75
68556;HTU21D;55544;51.032;5.866;2023-05-24T03:47:21;10.57;66.90
68556;HTU21D;55544;51.032;5.866;2023-05-24T03:49:47;10.53;67.26
68556;HTU21D;55544;51.032;5.866;2023-05-24T03:52:13;10.49;67.63
68556;HTU21D;55544;51.032;5.866;2023-05-24T03:54:38;10.49;67.52
68556;HTU21D;55544;51.032;5.866;2023-05-24T03:57:05;10.33;67.90
68556;HTU21D;55544;51.032;5.866;2023-05-24T03:59:30;10.22;68.25
68556;HTU21D;55544;51.032;5.866;2023-05-24T04:01:56;10.12;68.67
68556;HTU21D;55544;51.032;5.866;2023-05-24T04:04:22;10.04;69.21
68556;HTU21D;55544;51.032;5.866;2023-05-24T04:06:48;9.92;69.86
68556;HTU21D;55544;51.032;5.866;2023-05-24T04:09:14;9.85;70.35
68556;HTU21D;55544;51.032;5.866;2023-05-24T04:11:40;9.85;70.27
68556;HTU21D;55544;51.032;5.866;2023-05-24T04:14:09;9.88;69.68
68556;HTU21D;55544;51.032;5.866;2023-05-24T04:16:36;9.89;69.39
68556;HTU21D;55544;51.032;5.866;2023-05-24T04:19:04;9.83;69.74
68556;HTU21D;55544;51.032;5.866;2023-05-24T04:21:30;9.79;70.23
68556;HTU21D;55544;51.032;5.866;2023-05-24T04:23:58;9.76;70.67
68556;HTU21D;55544;51.032;5.866;2023-05-24T04:26:26;9.76;71.01
68556;HTU21D;55544;51.032;5.866;2023-05-24T04:28:52;9.79;70.99
68556;HTU21D;55544;51.032;5.866;2023-05-24T04:31:18;9.92;70.86
68556;HTU21D;55544;51.032;5.866;2023-05-24T04:33:45;10.08;70.39
68556;HTU21D;55544;51.032;5.866;2023-05-24T04:36:13;10.20;69.94
68556;HTU21D;55544;51.032;5.866;2023-05-24T04:38:39;10.19;70.22
68556;HTU21D;55544;51.032;5.866;2023-05-24T04:41:06;10.13;70.81
68556;HTU21D;55544;51.032;5.866;2023-05-24T04:43:32;10.15;70.91
68556;HTU21D;55544;51.032;5.866;2023-05-24T04:46:00;10.19;70.95
68556;HTU21D;55544;51.032;5.866;2023-05-24T04:48:26;10.25;70.87
68556;HTU21D;55544;51.032;5.866;2023-05-24T04:50:53;10.36;70.56
68556;HTU21D;55544;51.032;5.866;2023-05-24T04:53:20;10.44;70.45
68556;HTU21D;55544;51.032;5.866;2023-05-24T04:55:47;10.53;70.35
68556;HTU21D;55544;51.032;5.866;2023-05-24T04:58:13;10.60;70.23
68556;HTU21D;55544;51.032;5.866;2023-05-24T05:00:39;10.64;70.45
68556;HTU21D;55544;51.032;5.866;2023-05-24T05:03:05;10.63;70.55
68556;HTU21D;55544;51.032;5.866;2023-05-24T05:05:31;10.65;70.84
68556;HTU21D;55544;51.032;5.866;2023-05-24T05:07:57;10.66;71.13
68556;HTU21D;55544;51.032;5.866;2023-05-24T05:10:22;10.70;71.21
68556;HTU21D;55544;51.032;5.866;2023-05-24T05:12:49;10.73;71.38
68556;HTU21D;55544;51.032;5.866;2023-05-24T05:15:15;10.75;71.42
68556;HTU21D;55544;51.032;5.866;2023-05-24T05:17:40;10.79;71.55
68556;HTU21D;55544;51.032;5.866;2023-05-24T05:20:06;10.82;71.48
68556;HTU21D;55544;51.032;5.866;2023-05-24T05:22:32;10.89;71.19
68556;HTU21D;55544;51.032;5.866;2023-05-24T05:24:59;10.93;71.19
68556;HTU21D;55544;51.032;5.866;2023-05-24T05:27:25;10.98;71.06
68556;HTU21D;55544;51.032;5.866;2023-05-24T05:29:51;11.00;71.00
68556;HTU21D;55544;51.032;5.866;2023-05-24T05:32:16;11.03;70.97
68556;HTU21D;55544;51.032;5.866;2023-05-24T05:34:42;11.08;70.97
68556;HTU21D;55544;51.032;5.866;2023-05-24T05:37:08;11.11;70.71
68556;HTU21D;55544;51.032;5.866;2023-05-24T05:39:34;11.16;70.73
68556;HTU21D;55544;51.032;5.866;2023-05-24T05:41:59;11.19;70.88
68556;HTU21D;55544;51.032;5.866;2023-05-24T05:44:26;11.24;70.77
68556;HTU21D;55544;51.032;5.866;2023-05-24T05:46:52;11.31;70.51
68556;HTU21D;55544;51.032;5.866;2023-05-24T05:49:18;11.39;70.50
68556;HTU21D;55544;51.032;5.866;2023-05-24T05:51:44;11.45;70.70
68556;HTU21D;55544;51.032;5.866;2023-05-24T05:54:11;11.53;70.52
68556;HTU21D;55544;51.032;5.866;2023-05-24T05:56:44;11.61;70.08
68556;HTU21D;55544;51.032;5.866;2023-05-24T05:59:11;11.67;70.24
68556;HTU21D;55544;51.032;5.866;2023-05-24T06:01:38;11.73;70.07
68556;HTU21D;55544;51.032;5.866;2023-05-24T06:04:04;11.79;69.54
68556;HTU21D;55544;51.032;5.866;2023-05-24T06:06:29;11.87;69.58
68556;HTU21D;55544;51.032;5.866;2023-05-24T06:08:55;11.92;69.26
68556;HTU21D;55544;51.032;5.866;2023-05-24T06:11:21;11.99;69.31
68556;HTU21D;55544;51.032;5.866;2023-05-24T06:13:48;12.05;68.96
68556;HTU21D;55544;51.032;5.866;2023-05-24T06:16:13;12.12;68.84
68556;HTU21D;55544;51.032;5.866;2023-05-24T06:18:40;12.16;68.84
68556;HTU21D;55544;51.032;5.866;2023-05-24T06:21:06;12.16;68.65
68556;HTU21D;55544;51.032;5.866;2023-05-24T06:23:35;12.18;68.42
68556;HTU21D;55544;51.032;5.866;2023-05-24T06:26:02;12.22;68.83
68556;HTU21D;55544;51.032;5.866;2023-05-24T06:28:28;12.31;68.94
68556;HTU21D;55544;51.032;5.866;2023-05-24T06:30:54;12.37;69.01
68556;HTU21D;55544;51.032;5.866;2023-05-24T06:33:20;12.51;68.92
68556;HTU21D;55544;51.032;5.866;2023-05-24T06:35:47;12.64;68.23
68556;HTU21D;55544;51.032;5.866;2023-05-24T06:38:13;12.73;68.00
68556;HTU21D;55544;51.032;5.866;2023-05-24T06:40:39;12.84;67.49
68556;HTU21D;55544;51.032;5.866;2023-05-24T06:43:05;12.93;67.01
68556;HTU21D;55544;51.032;5.866;2023-05-24T06:45:30;13.04;66.53
68556;HTU21D;55544;51.032;5.866;2023-05-24T06:47:57;13.18;65.91
68556;HTU21D;55544;51.032;5.866;2023-05-24T06:50:23;13.32;65.25
68556;HTU21D;55544;51.032;5.866;2023-05-24T06:52:49;13.44;64.88
68556;HTU21D;55544;51.032;5.866;2023-05-24T06:55:15;13.52;64.21
68556;HTU21D;55544;51.032;5.866;2023-05-24T06:57:41;13.51;63.92
68556;HTU21D;55544;51.032;5.866;2023-05-24T07:00:07;13.58;64.23
68556;HTU21D;55544;51.032;5.866;2023-05-24T07:02:34;13.63;64.50
68556;HTU21D;55544;51.032;5.866;2023-05-24T07:05:00;13.79;64.88
68556;HTU21D;55544;51.032;5.866;2023-05-24T07:07:26;13.93;64.66
68556;HTU21D;55544;51.032;5.866;2023-05-24T07:09:52;14.05;64.53
68556;HTU21D;55544;51.032;5.866;2023-05-24T07:12:18;14.18;64.21
68556;HTU21D;55544;51.032;5.866;2023-05-24T07:14:44;14.29;64.04
68556;HTU21D;55544;51.032;5.866;2023-05-24T07:17:09;14.41;63.61
68556;HTU21D;55544;51.032;5.866;2023-05-24T07:19:35;14.47;63.28
68556;HTU21D;55544;51.032;5.866;2023-05-24T07:22:01;14.56;63.40
68556;HTU21D;55544;51.032;5.866;2023-05-24T07:24:27;14.65;62.86
68556;HTU21D;55544;51.032;5.866;2023-05-24T07:26:52;14.70;62.65
68556;HTU21D;55544;51.032;5.866;2023-05-24T07:29:18;14.74;62.79
68556;HTU21D;55544;51.032;5.866;2023-05-24T07:31:45;14.83;62.61
68556;HTU21D;55544;51.032;5.866;2023-05-24T07:34:12;14.88;62.62
68556;HTU21D;55544;51.032;5.866;2023-05-24T07:36:38;15.01;62.88
68556;HTU21D;55544;51.032;5.866;2023-05-24T07:39:05;15.13;62.25
68556;HTU21D;55544;51.032;5.866;2023-05-24T07:41:34;15.22;62.15
68556;HTU21D;55544;51.032;5.866;2023-05-24T07:44:01;15.26;61.70
68556;HTU21D;55544;51.032;5.866;2023-05-24T07:46:26;15.26;61.44
68556;HTU21D;55544;51.032;5.866;2023-05-24T07:48:52;15.40;61.67
68556;HTU21D;55544;51.032;5.866;2023-05-24T07:51:18;15.68;61.12
68556;HTU21D;55544;51.032;5.866;2023-05-24T07:53:44;15.90;59.91
68556;HTU21D;55544;51.032;5.866;2023-05-24T07:56:10;15.98;58.40
68556;HTU21D;55544;51.032;5.866;2023-05-24T07:58:36;16.10;58.48
68556;HTU21D;55544;51.032;5.866;2023-05-24T08:01:02;16.30;57.88
68556;HTU21D;55544;51.032;5.866;2023-05-24T08:03:28;16.37;56.26
68556;HTU21D;55544;51.032;5.866;2023-05-24T08:05:54;16.28;55.55
68556;HTU21D;55544;51.032;5.866;2023-05-24T08:08:19;16.18;55.40
68556;HTU21D;55544;51.032;5.866;2023-05-24T08:10:45;16.15;55.54
68556;HTU21D;55544;51.032;5.866;2023-05-24T08:13:11;16.19;55.40
68556;HTU21D;55544;51.032;5.866;2023-05-24T08:15:37;16.30;54.92
68556;HTU21D;55544;51.032;5.866;2023-05-24T08:18:03;16.51;54.24
68556;HTU21D;55544;51.032;5.866;2023-05-24T08:20:29;16.64;52.74
68556;HTU21D;55544;51.032;5.866;2023-05-24T08:22:55;16.66;51.92
68556;HTU21D;55544;51.032;5.866;2023-05-24T08:25:21;16.66;51.43
68556;HTU21D;55544;51.032;5.866;2023-05-24T08:27:47;16.70;50.92
68556;HTU21D;55544;51.032;5.866;2023-05-24T08:30:13;16.69;50.84
68556;HTU21D;55544;51.032;5.866;2023-05-24T08:32:38;16.65;50.59
68556;HTU21D;55544;51.032;5.866;2023-05-24T08:35:04;16.69;50.94
68556;HTU21D;55544;51.032;5.866;2023-05-24T08:37:33;16.75;50.87
68556;HTU21D;55544;51.032;5.866;2023-05-24T08:39:58;16.82;51.21
68556;HTU21D;55544;51.032;5.866;2023-05-24T08:42:24;17.09;51.02
68556;HTU21D;55544;51.032;5.866;2023-05-24T08:44:58;17.41;49.83
68556;HTU21D;55544;51.032;5.866;2023-05-24T08:47:28;17.69;49.21
68556;HTU21D;55544;51.032;5.866;2023-05-24T08:49:54;17.95;48.56
68556;HTU21D;55544;51.032;5.866;2023-05-24T08:52:22;18.21;47.94
68556;HTU21D;55544;51.032;5.866;2023-05-24T08:54:48;18.42;46.79
68556;HTU21D;55544;51.032;5.866;2023-05-24T08:57:15;18.64;45.80
68556;HTU21D;55544;51.032;5.866;2023-05-24T08:59:43;18.82;45.61
68556;HTU21D;55544;51.032;5.866;2023-05-24T09:02:12;18.92;44.62
68556;HTU21D;55544;51.032;5.866;2023-05-24T09:04:40;18.99;44.29
68556;HTU21D;55544;51.032;5.866;2023-05-24T09:07:06;19.13;44.53
68556;HTU21D;55544;51.032;5.866;2023-05-24T09:09:34;19.26;43.80
68556;HTU21D;55544;51.032;5.866;2023-05-24T09:12:03;19.29;42.90
68556;HTU21D;55544;51.032;5.866;2023-05-24T09:14:30;19.31;43.44
68556;HTU21D;55544;51.032;5.866;2023-05-24T09:16:57;19.39;43.88
68556;HTU21D;55544;51.032;5.866;2023-05-24T09:19:23;19.52;44.16
68556;HTU21D;55544;51.032;5.866;2023-05-24T09:21:49;19.65;43.60
68556;HTU21D;55544;51.032;5.866;2023-05-24T09:24:15;19.60;43.34
68556;HTU21D;55544;51.032;5.866;2023-05-24T09:26:41;19.56;43.56
68556;HTU21D;55544;51.032;5.866;2023-05-24T09:29:07;19.53;43.37
68556;HTU21D;55544;51.032;5.866;2023-05-24T09:31:35;19.57;43.59
68556;HTU21D;55544;51.032;5.866;2023-05-24T09:34:02;19.57;43.16
68556;HTU21D;55544;51.032;5.866;2023-05-24T09:36:28;19.59;42.61
68556;HTU21D;55544;51.032;5.866;2023-05-24T09:39:09;19.43;42.37
68556;HTU21D;55544;51.032;5.866;2023-05-24T09:41:36;19.36;42.63
68556;HTU21D;55544;51.032;5.866;2023-05-24T09:44:02;19.37;43.12
68556;HTU21D;55544;51.032;5.866;2023-05-24T09:46:28;19.62;43.25
68556;HTU21D;55544;51.032;5.866;2023-05-24T09:48:59;19.96;42.77
68556;HTU21D;55544;51.032;5.866;2023-05-24T09:51:28;20.25;41.90
68556;HTU21D;55544;51.032;5.866;2023-05-24T09:54:00;20.47;41.53
68556;HTU21D;55544;51.032;5.866;2023-05-24T09:56:26;20.73;40.99
68556;HTU21D;55544;51.032;5.866;2023-05-24T09:58:52;20.87;40.39
68556;HTU21D;55544;51.032;5.866;2023-05-24T10:01:23;21.08;39.18
68556;HTU21D;55544;51.032;5.866;2023-05-24T10:03:57;21.13;38.97
68556;HTU21D;55544;51.032;5.866;2023-05-24T10:06:24;20.95;39.11
68556;HTU21D;55544;51.032;5.866;2023-05-24T10:08:51;20.68;39.44
68556;HTU21D;55544;51.032;5.866;2023-05-24T10:11:18;20.54;39.98
68556;HTU21D;55544;51.032;5.866;2023-05-24T10:13:46;20.70;40.42
68556;HTU21D;55544;51.032;5.866;2023-05-24T10:16:12;21.00;40.49
68556;HTU21D;55544;51.032;5.866;2023-05-24T10:18:38;21.33;41.19
68556;HTU21D;55544;51.032;5.866;2023-05-24T10:21:06;21.64;40.18
68556;HTU21D;55544;51.032;5.866;2023-05-24T10:23:38;21.78;39.35
68556;HTU21D;55544;51.032;5.866;2023-05-24T10:26:09;21.64;38.48
68556;HTU21D;55544;51.032;5.866;2023-05-24T10:31:14;21.82;38.59
68556;HTU21D;55544;51.032;5.866;2023-05-24T10:33:43;22.08;38.94
68556;HTU21D;55544;51.032;5.866;2023-05-24T10:36:13;22.31;38.69
68556;HTU21D;55544;51.032;5.866;2023-05-24T10:38:40;22.38;37.04
68556;HTU21D;55544;51.032;5.866;2023-05-24T10:41:07;22.23;36.40
68556;HTU21D;55544;51.032;5.866;2023-05-24T10:43:34;22.16;36.53
68556;HTU21D;55544;51.032;5.866;2023-05-24T10:46:01;22.18;37.38
68556;HTU21D;55544;51.032;5.866;2023-05-24T10:50:54;22.79;36.82
68556;HTU21D;55544;51.032;5.866;2023-05-24T10:53:25;22.77;35.98
68556;HTU21D;55544;51.032;5.866;2023-05-24T10:55:59;22.49;35.94
68556;HTU21D;55544;51.032;5.866;2023-05-24T11:00:57;22.27;36.79
68556;HTU21D;55544;51.032;5.866;2023-05-24T11:03:23;22.21;36.26
68556;HTU21D;55544;51.032;5.866;2023-05-24T11:05:52;22.11;36.56
68556;HTU21D;55544;51.032;5.866;2023-05-24T11:08:32;22.10;37.57
68556;HTU21D;55544;51.032;5.866;2023-05-24T11:11:06;22.18;37.62
68556;HTU21D;55544;51.032;5.866;2023-05-24T11:13:35;22.08;37.45
68556;HTU21D;55544;51.032;5.866;2023-05-24T11:16:02;22.14;36.67
68556;HTU21D;55544;51.032;5.866;2023-05-24T11:18:28;22.44;36.61
68556;HTU21D;55544;51.032;5.866;2023-05-24T11:20:54;22.69;35.53
68556;HTU21D;55544;51.032;5.866;2023-05-24T11:23:21;22.56;35.14
68556;HTU21D;55544;51.032;5.866;2023-05-24T11:25:48;22.36;35.15
68556;HTU21D;55544;51.032;5.866;2023-05-24T11:28:13;22.08;35.63
68556;HTU21D;55544;51.032;5.866;2023-05-24T11:33:19;21.84;36.78
68556;HTU21D;55544;51.032;5.866;2023-05-24T11:35:50;21.79;37.30
68556;HTU21D;55544;51.032;5.866;2023-05-24T11:38:17;21.68;37.78
68556;HTU21D;55544;51.032;5.866;2023-05-24T11:40:47;21.54;37.40
68556;HTU21D;55544;51.032;5.866;2023-05-24T11:43:16;21.45;37.56
68556;HTU21D;55544;51.032;5.866;2023-05-24T11:45:48;21.36;38.01
68556;HTU21D;55544;51.032;5.866;2023-05-24T11:48:15;21.27;38.37
68556;HTU21D;55544;51.032;5.866;2023-05-24T11:50:44;21.11;38.46
68556;HTU21D;55544;51.032;5.866;2023-05-24T11:53:17;20.96;38.43
68556;HTU21D;55544;51.032;5.866;2023-05-24T11:55:43;20.86;38.75
68556;HTU21D;55544;51.032;5.866;2023-05-24T11:58:31;20.78;39.36
68556;HTU21D;55544;51.032;5.866;2023-05-24T12:01:00;20.73;39.56
68556;HTU21D;55544;51.032;5.866;2023-05-24T12:03:28;20.62;40.08
68556;HTU21D;55544;51.032;5.866;2023-05-24T12:05:56;20.57;39.96
68556;HTU21D;55544;51.032;5.866;2023-05-24T12:08:22;20.57;40.45
68556;HTU21D;55544;51.032;5.866;2023-05-24T12:10:48;20.56;40.80
68556;HTU21D;55544;51.032;5.866;2023-05-24T12:13:23;20.51;41.46
68556;HTU21D;55544;51.032;5.866;2023-05-24T12:15:52;20.49;42.02
68556;HTU21D;55544;51.032;5.866;2023-05-24T12:18:19;20.40;42.03
68556;HTU21D;55544;51.032;5.866;2023-05-24T12:20:47;20.31;42.03
68556;HTU21D;55544;51.032;5.866;2023-05-24T12:23:13;20.29;42.05
68556;HTU21D;55544;51.032;5.866;2023-05-24T12:25:39;20.19;42.63
68556;HTU21D;55544;51.032;5.866;2023-05-24T12:28:05;20.21;42.66
68556;HTU21D;55544;51.032;5.866;2023-05-24T12:30:31;20.24;42.88
68556;HTU21D;55544;51.032;5.866;2023-05-24T12:32:57;20.22;43.04
68556;HTU21D;55544;51.032;5.866;2023-05-24T12:35:23;20.32;43.45
68556;HTU21D;55544;51.032;5.866;2023-05-24T12:37:49;20.43;43.40
68556;HTU21D;55544;51.032;5.866;2023-05-24T12:40:22;20.66;42.87
68556;HTU21D;55544;51.032;5.866;2023-05-24T12:42:54;20.90;43.06
68556;HTU21D;55544;51.032;5.866;2023-05-24T12:45:26;20.99;42.88
68556;HTU21D;55544;51.032;5.866;2023-05-24T12:47:53;20.98;42.33
68556;HTU21D;55544;51.032;5.866;2023-05-24T12:50:22;20.95;42.26
68556;HTU21D;55544;51.032;5.866;2023-05-24T12:52:48;20.90;42.27
68556;HTU21D;55544;51.032;5.866;2023-05-24T12:55:18;20.85;42.71
68556;HTU21D;55544;51.032;5.866;2023-05-24T12:57:45;20.80;42.93
68556;HTU21D;55544;51.032;5.866;2023-05-24T13:00:24;20.75;42.95
68556;HTU21D;55544;51.032;5.866;2023-05-24T13:02:56;20.68;43.44
68556;HTU21D;55544;51.032;5.866;2023-05-24T13:05:27;20.69;43.32
68556;HTU21D;55544;51.032;5.866;2023-05-24T13:07:55;20.66;42.76
68556;HTU21D;55544;51.032;5.866;2023-05-24T13:10:24;20.69;42.49
68556;HTU21D;55544;51.032;5.866;2023-05-24T13:12:50;20.70;42.25
68556;HTU21D;55544;51.032;5.866;2023-05-24T13:15:16;20.71;42.50
68556;HTU21D;55544;51.032;5.866;2023-05-24T13:17:44;20.75;42.15
68556;HTU21D;55544;51.032;5.866;2023-05-24T13:20:11;20.80;42.03
68556;HTU21D;55544;51.032;5.866;2023-05-24T13:22:38;20.89;41.78
68556;HTU21D;55544;51.032;5.866;2023-05-24T13:25:05;20.87;41.18
68556;HTU21D;55544;51.032;5.866;2023-05-24T13:27:32;20.89;41.48
68556;HTU21D;55544;51.032;5.866;2023-05-24T13:29:58;20.88;41.56
68556;HTU21D;55544;51.032;5.866;2023-05-24T13:32:24;20.99;41.85
68556;HTU21D;55544;51.032;5.866;2023-05-24T13:34:50;21.10;41.25
68556;HTU21D;55544;51.032;5.866;2023-05-24T13:37:16;21.20;41.23
68556;HTU21D;55544;51.032;5.866;2023-05-24T13:39:44;21.43;41.19
68556;HTU21D;55544;51.032;5.866;2023-05-24T13:42:09;21.72;40.81
68556;HTU21D;55544;51.032;5.866;2023-05-24T13:44:36;21.99;40.37
68556;HTU21D;55544;51.032;5.866;2023-05-24T13:47:02;22.21;39.17
68556;HTU21D;55544;51.032;5.866;2023-05-24T13:49:28;22.23;38.60
68556;HTU21D;55544;51.032;5.866;2023-05-24T13:51:54;22.11;38.82
68556;HTU21D;55544;51.032;5.866;2023-05-24T13:54:20;21.95;39.02
68556;HTU21D;55544;51.032;5.866;2023-05-24T13:56:47;21.79;39.01
68556;HTU21D;55544;51.032;5.866;2023-05-24T13:59:15;21.61;39.60
68556;HTU21D;55544;51.032;5.866;2023-05-24T14:01:42;21.52;40.16
68556;HTU21D;55544;51.032;5.866;2023-05-24T14:04:08;21.46;39.81
68556;HTU21D;55544;51.032;5.866;2023-05-24T14:06:34;21.27;40.01
68556;HTU21D;55544;51.032;5.866;2023-05-24T14:09:03;21.16;40.81
68556;HTU21D;55544;51.032;5.866;2023-05-24T14:11:31;21.14;41.29
68556;HTU21D;55544;51.032;5.866;2023-05-24T14:13:58;21.13;41.20
68556;HTU21D;55544;51.032;5.866;2023-05-24T14:16:24;21.14;41.11
68556;HTU21D;55544;51.032;5.866;2023-05-24T14:18:50;21.02;41.40
68556;HTU21D;55544;51.032;5.866;2023-05-24T14:21:19;20.94;41.65
68556;HTU21D;55544;51.032;5.866;2023-05-24T14:23:50;20.89;41.97
68556;HTU21D;55544;51.032;5.866;2023-05-24T14:26:16;20.85;42.51
68556;HTU21D;55544;51.032;5.866;2023-05-24T14:28:42;20.83;42.29
68556;HTU21D;55544;51.032;5.866;2023-05-24T14:31:07;20.78;42.09
68556;HTU21D;55544;51.032;5.866;2023-05-24T14:33:33;20.71;42.80
68556;HTU21D;55544;51.032;5.866;2023-05-24T14:35:59;20.71;42.88
68556;HTU21D;55544;51.032;5.866;2023-05-24T14:38:24;20.66;42.35
68556;HTU21D;55544;51.032;5.866;2023-05-24T14:40:50;20.60;42.72
68556;HTU21D;55544;51.032;5.866;2023-05-24T14:43:16;20.59;43.00
68556;HTU21D;55544;51.032;5.866;2023-05-24T14:45:42;20.64;43.19
68556;HTU21D;55544;51.032;5.866;2023-05-24T14:48:09;20.70;43.09
68556;HTU21D;55544;51.032;5.866;2023-05-24T14:50:41;20.73;42.66
68556;HTU21D;55544;51.032;5.866;2023-05-24T14:53:08;20.72;42.37
68556;HTU21D;55544;51.032;5.866;2023-05-24T14:55:37;20.69;42.61
68556;HTU21D;55544;51.032;5.866;2023-05-24T14:58:04;20.68;42.45
68556;HTU21D;55544;51.032;5.866;2023-05-24T15:00:34;20.66;42.58
68556;HTU21D;55544;51.032;5.866;2023-05-24T15:03:00;20.63;42.63
68556;HTU21D;55544;51.032;5.866;2023-05-24T15:05:26;20.61;42.87
68556;HTU21D;55544;51.032;5.866;2023-05-24T15:07:52;20.56;42.75
68556;HTU21D;55544;51.032;5.866;2023-05-24T15:10:18;20.55;42.99
68556;HTU21D;55544;51.032;5.866;2023-05-24T15:12:43;20.56;43.32
68556;HTU21D;55544;51.032;5.866;2023-05-24T15:15:09;20.56;43.47
68556;HTU21D;55544;51.032;5.866;2023-05-24T15:17:35;20.56;43.42
68556;HTU21D;55544;51.032;5.866;2023-05-24T15:20:01;20.54;43.43
68556;HTU21D;55544;51.032;5.866;2023-05-24T15:22:27;20.51;43.64
68556;HTU21D;55544;51.032;5.866;2023-05-24T15:24:53;20.44;43.80
68556;HTU21D;55544;51.032;5.866;2023-05-24T15:27:18;20.41;44.13
68556;HTU21D;55544;51.032;5.866;2023-05-24T15:29:44;20.41;44.24
68556;HTU21D;55544;51.032;5.866;2023-05-24T15:32:10;20.40;44.11
68556;HTU21D;55544;51.032;5.866;2023-05-24T15:34:35;20.41;43.87
68556;HTU21D;55544;51.032;5.866;2023-05-24T15:37:01;20.41;43.53
68556;HTU21D;55544;51.032;5.866;2023-05-24T15:39:27;20.45;43.45